Johannesburg, South Africa
Current Conditions -  °F | °C
As of 6:00 AM on Sunday 26 Oct 2014 (Local Time) from FAOR Reporting Station
Drizzle Drizzle  
Wind Chill: 13°   Ceiling: 400
Heat Index: 13°   Visibility: 4mi
Dew Point: 11°   Wind: 9mph
Humidity: 88%   Direction: 40°NE
Pressure: 30.33"   Gusts: NA
Location:  26.19°S, 28.04°E
Report Text: FAOR 260400Z 04008KT 6000 -DZ BKN004 13/11 Q1027 BECMG BKN006
Loading
Personal Weather Stations






























Interactive Weather Map
Tropical Storm Tracking
New forecast layout! Learn more

10-Day Weather Forecast

Advertisements
Track Severe Weather on mobile